עמוד ראשי
METAR-TAF:

METAR-TAF

שדות תעופה :

נמל התעופה שטוטגרט

שטוטגרט, גרמניה

קו רוחב: 48-41N, קו אורך: 009-13E, גובה: 396מטר

תצפית מזג אוויר נוכחית

הדו"ח נערך לפני 27דקות, בשעה 00:50 UTC
רוח 1קשר מכיוון מזרח
טמפרטורת 12 צלסיוס
לחות 94%
לחץ 1018 hPa
ראות: 3400מטר
עננים פזורים בגובה 100רגל
קרעי ערפל

METAR: EDDS 250050Z 08001KT 9000 3400E BCFG SCT001 12/11 Q1018

זמן: 03:17 (01:17 UTC)

תחזית

הדו"ח נערך לפני 2 שעות ו 17דקות, בשעה 23:00 UTC
תחזית בתוקף מ 25 ב 00 UTC עד 25 ב 24 UTC
רוח 2קשר עם כיוונים משתנים
ראות 10 קילומטר או יותר
ללא עננים שבסיסם נמוך מ 5000 רגל או קומולונימבוס
הסתברות 40% :
זמנית מ -
25 ב 00 UTC עד 25 ב 06 UTC
ראות: 2500מטר
קרעי ערפל
הסתברות 30% :
זמנית מ -
25 ב 00 UTC עד 25 ב 05 UTC
ראות: 0200מטר
עננים בינוניים בגובה 100רגל
ערפל
יעשה מ
25 ב 08 UTC עד 25 ב 10 UTC
רוח 5קשר מכיוון צפון/צפון-מזרח

TAF: EDDS 242300Z 2500/2524 VRB02KT CAVOK PROB40 TEMPO 2500/2506 2500 BCFG PROB30 TEMPO 2500/2505 0200 FG BKN001 BECMG 2508/2510 02005KT

תצפיות ותחזיות מזג אוויר לגבי יותר מ- 4,000 שדות תעופה ברחבי העולם. דוחות METAR ו- TAF.

התחנות הזמינות מסומנות בנקודות צהובות ואדומות על גבי המפה.

העבר את העכבר לנקודה הצבעונית על מנת לראות את שם התחנה.

לאחר מכן, לחץ כדי לראות את תוכן ואת תחזיות מזג האוויר.

כדי לשנות את המפה: לחץ על הכפתורים הירוקים עם הפלוס השחור כדי להתקרב; על הכפתור הירוק עם המקף כדי להתרחק; או בחיצים הירוקים למפות סמוכות.


METAR-TAF: